Hampton, NH

3:22 AM EST on December 25, 2014 (GMT -0500)
Hampton Airfield 7B3 | Change Station
CLOSE
Current Station
Personal Weather Station
Location: North Hampton, NH
Elevation: 93 ft
Nearby Weather Stations
Active Advisory: Coastal Flood Statement

Elev 93 ft 42.96 °N, 70.83 °W | Updated 3 minutes ago

Overcast
Overcast
40.5 °F
Feels Like 40 °F
N
0.0
Wind Variable Wind from WNW
Gusts 2.0 mph

Today
High -- | Low -- °F
--% Chance of Precip.
Yesterday
High -- | Low -- °F
Precip. -- in
7:12 AM 4:14 PM
Waxing Crescent, 14% visible
Pressure 29.52 in
Visibility 0.5 miles
Clouds Overcast 100 ft
Windchill 40 °F
Dew Point 40 °F
Humidity 98%
Rainfall 0.00 in
Snow Depth Not available.
UV 0 out of 12
Pollen .10 out of 12
Air Quality Not available.
Flu Activity Not available.
METAR KPSM 250758Z 00000KT 1/2SM R34/3000FT -DZ FG OVC001 05/04 A2950 RMK AO2A SLP994 P0000 T00450039

More Conditions Fewer Conditions

Pressure 29.52 in
Visibility 0.5 miles
Clouds Overcast 100 ft
Windchill 40 °F
Dew Point 40 °F
Humidity 98%
Rainfall 0.00 in
Snow Depth Not available.
UV 0 out of 12
Pollen .10 out of 12
Air Quality Not available.
Flu Activity Not available.
METAR KPSM 250758Z 00000KT 1/2SM R34/3000FT -DZ FG OVC001 05/04 A2950 RMK AO2A SLP994 P0000 T00450039

More Conditions Fewer Conditions

10-Day Weather Forecast

Almanac

Astronomy

Dec. 25, 2014 Rise Set
Actual Time
Civil Twilight
Nautical Twilight
Astronomical Twilight
Moon
Length of Visible Light
Length of Day
Tomorrow will be .
, % of the Moon is Illuminated

Today's Extremes

State Highs State Lows

Community

WunderPhotos

Upload Photos

1,780,250 photos uploaded!

WunderBlogs® & News

Nearby

Air Quality

  Air Quality AQ Index Pollutant
Not available.

Snow Depth

Station Depth Elevation

Earthquake Activity

City Distance Mag. Time & Date
Minimum magnitude displayed is 2.5.

Coastal Water Temperatures

Place Temperature

Nearby Weather Stations